createdAt,value
2017-11-16T00:00:42.000Z,1001.21
2017-11-16T00:01:43.000Z,1001.17
2017-11-16T00:02:43.000Z,1001.10
2017-11-16T00:03:43.000Z,1001.21
2017-11-16T00:04:43.000Z,1001.17
2017-11-16T00:05:43.000Z,1001.21
2017-11-16T00:06:43.000Z,1001.17
2017-11-16T00:07:43.000Z,1001.12
2017-11-16T00:08:43.000Z,1001.12
2017-11-16T00:09:43.000Z,1001.13
2017-11-16T00:10:43.000Z,1001.15
2017-11-16T00:11:42.000Z,1001.18
2017-11-16T00:12:42.000Z,1001.13
2017-11-16T00:13:42.000Z,1001.16
2017-11-16T00:14:42.000Z,1001.16
2017-11-16T00:15:42.000Z,1001.18
2017-11-16T00:16:53.000Z,1001.23
2017-11-16T00:17:42.000Z,1001.15
2017-11-16T00:18:43.000Z,1001.14
2017-11-16T00:19:43.000Z,1001.23
2017-11-16T00:20:43.000Z,1001.14
2017-11-16T00:21:43.000Z,1001.14
2017-11-16T00:22:43.000Z,1001.18
2017-11-16T00:25:53.000Z,1001.14
2017-11-16T00:25:55.000Z,1001.17
2017-11-16T00:26:42.000Z,1001.16
2017-11-16T00:27:44.000Z,1001.18
2017-11-16T00:28:43.000Z,1001.14
2017-11-16T00:29:42.000Z,1001.15
2017-11-16T00:30:43.000Z,1001.07
2017-11-16T00:31:42.000Z,1001.14
2017-11-16T00:32:42.000Z,1001.12
2017-11-16T00:33:42.000Z,1001.13
2017-11-16T00:34:42.000Z,1001.11
2017-11-16T00:35:43.000Z,1001.12
2017-11-16T00:36:43.000Z,1001.16
2017-11-16T00:37:43.000Z,1001.05
2017-11-16T00:38:43.000Z,1001.11
2017-11-16T00:39:43.000Z,1001.12
2017-11-16T00:40:43.000Z,1001.09
2017-11-16T00:41:43.000Z,1001.09
2017-11-16T00:42:43.000Z,1001.06
2017-11-16T00:43:43.000Z,1001.11
2017-11-16T00:44:43.000Z,1001.07
2017-11-16T00:45:43.000Z,1001.11
2017-11-16T00:46:43.000Z,1001.08
2017-11-16T00:47:42.000Z,1001.05
2017-11-16T00:48:42.000Z,1001.05
2017-11-16T00:49:42.000Z,1000.97
2017-11-16T00:50:42.000Z,1001.02
2017-11-16T00:51:42.000Z,1001.09
2017-11-16T00:52:42.000Z,1001.02
2017-11-16T00:53:43.000Z,1001.06
2017-11-16T00:54:43.000Z,1001.06
2017-11-16T00:55:43.000Z,1001.09
2017-11-16T00:56:43.000Z,1001.06
2017-11-16T00:57:43.000Z,1001.16
2017-11-16T00:58:43.000Z,1001.13
2017-11-16T00:59:43.000Z,1001.07
2017-11-16T01:00:43.000Z,1001.06
2017-11-16T01:01:43.000Z,1001.07
2017-11-16T01:02:43.000Z,1000.96
2017-11-16T01:03:43.000Z,1001.06
2017-11-16T01:04:42.000Z,1001.01
2017-11-16T01:05:42.000Z,1001.04
2017-11-16T01:06:42.000Z,1001.06
2017-11-16T01:07:42.000Z,1000.97
2017-11-16T01:08:42.000Z,1001.06
2017-11-16T01:09:43.000Z,1001.08
2017-11-16T01:10:43.000Z,1000.99
2017-11-16T01:11:43.000Z,1001.08
2017-11-16T01:12:43.000Z,1000.95
2017-11-16T01:13:43.000Z,1001.02
2017-11-16T01:14:43.000Z,1000.89
2017-11-16T01:15:43.000Z,1000.97
2017-11-16T01:16:43.000Z,1000.98
2017-11-16T01:17:43.000Z,1000.90
2017-11-16T01:18:43.000Z,1000.87
2017-11-16T01:19:43.000Z,1000.88
2017-11-16T01:20:43.000Z,1000.92
2017-11-16T01:21:42.000Z,1000.94
2017-11-16T01:22:42.000Z,1000.91
2017-11-16T01:23:42.000Z,1000.89
2017-11-16T01:24:42.000Z,1000.91
2017-11-16T01:25:42.000Z,1000.89
2017-11-16T01:26:42.000Z,1000.90
2017-11-16T01:27:43.000Z,1000.99
2017-11-16T01:28:43.000Z,1000.87
2017-11-16T01:29:43.000Z,1000.86
2017-11-16T01:30:43.000Z,1000.87
2017-11-16T01:31:43.000Z,1000.86
2017-11-16T01:32:43.000Z,1000.84
2017-11-16T01:33:43.000Z,1000.88
2017-11-16T01:34:48.000Z,1000.86
2017-11-16T01:35:42.000Z,1000.77
2017-11-16T01:36:45.000Z,1000.79
2017-11-16T01:37:43.000Z,1000.78
2017-11-16T01:38:43.000Z,1000.74
2017-11-16T01:39:42.000Z,1000.77
2017-11-16T01:40:42.000Z,1000.77
2017-11-16T01:41:42.000Z,1000.83
2017-11-16T01:42:42.000Z,1000.80
2017-11-16T01:43:42.000Z,1000.78
2017-11-16T01:44:42.000Z,1000.75
2017-11-16T01:45:43.000Z,1000.68
2017-11-16T01:46:44.000Z,1000.68
2017-11-16T01:47:43.000Z,1000.69
2017-11-16T01:48:43.000Z,1000.70
2017-11-16T01:49:43.000Z,1000.70
2017-11-16T01:50:43.000Z,1000.64
2017-11-16T01:51:44.000Z,1000.64
2017-11-16T01:52:43.000Z,1000.56
2017-11-16T01:53:43.000Z,1000.66
2017-11-16T01:54:44.000Z,1000.70
2017-11-16T01:55:43.000Z,1000.61
2017-11-16T01:56:42.000Z,1000.66
2017-11-16T01:57:43.000Z,1000.65
2017-11-16T01:58:42.000Z,1000.66
2017-11-16T01:59:42.000Z,1000.63
2017-11-16T02:03:14.000Z,1000.58
2017-11-16T02:03:15.000Z,1000.58
2017-11-16T02:03:16.000Z,1000.59
2017-11-16T02:05:59.000Z,1000.58
2017-11-16T02:06:00.000Z,1000.65
2017-11-16T02:06:01.000Z,1000.55
2017-11-16T02:08:38.000Z,1000.55
2017-11-16T02:08:39.000Z,1000.59
2017-11-16T02:08:42.000Z,1000.53
2017-11-16T02:11:59.000Z,1000.51
2017-11-16T02:12:00.000Z,1000.59
2017-11-16T02:12:01.000Z,1000.55
2017-11-16T02:14:32.000Z,1000.51
2017-11-16T02:14:33.000Z,1000.43
2017-11-16T02:14:42.000Z,1000.50
2017-11-16T02:17:44.000Z,1000.49
2017-11-16T02:17:45.000Z,1000.50
2017-11-16T02:17:46.000Z,1000.53
2017-11-16T02:20:32.000Z,1000.49
2017-11-16T02:20:33.000Z,1000.59
2017-11-16T02:20:42.000Z,1000.48
2017-11-16T02:23:42.000Z,1000.56
2017-11-16T02:23:43.000Z,1000.57
2017-11-16T02:23:44.000Z,1000.56
2017-11-16T02:26:34.000Z,1000.51
2017-11-16T02:26:36.000Z,1000.58
2017-11-16T02:26:42.000Z,1000.52
2017-11-16T02:29:48.000Z,1000.55
2017-11-16T02:29:49.000Z,1000.54
2017-11-16T02:29:50.000Z,1000.61
2017-11-16T02:32:42.000Z,1000.62
2017-11-16T02:32:43.000Z,1000.62
2017-11-16T02:32:44.000Z,1000.62
2017-11-16T02:35:45.000Z,1000.58
2017-11-16T02:35:46.000Z,1000.58
2017-11-16T02:35:47.000Z,1000.53
2017-11-16T02:38:32.000Z,1000.51
2017-11-16T02:38:33.000Z,1000.51
2017-11-16T02:38:43.000Z,1000.58
2017-11-16T02:41:48.000Z,1000.55
2017-11-16T02:41:49.000Z,1000.55
2017-11-16T02:41:50.000Z,1000.42
2017-11-16T02:44:32.000Z,1000.60
2017-11-16T02:44:33.000Z,1000.50
2017-11-16T02:44:43.000Z,1000.53
2017-11-16T02:47:50.000Z,1000.47
2017-11-16T02:47:51.000Z,1000.45
2017-11-16T02:47:52.000Z,1000.49
2017-11-16T02:50:37.000Z,1000.51
2017-11-16T02:50:38.000Z,1000.50
2017-11-16T02:50:43.000Z,1000.52
2017-11-16T02:53:53.000Z,1000.54
2017-11-16T02:53:54.000Z,1000.45
2017-11-16T02:53:55.000Z,1000.49
2017-11-16T02:56:33.000Z,1000.43
2017-11-16T02:56:35.000Z,1000.41
2017-11-16T02:56:43.000Z,1000.46
2017-11-16T02:59:56.000Z,1000.43
2017-11-16T02:59:57.000Z,1000.41
2017-11-16T02:59:57.000Z,1000.33
2017-11-16T03:00:43.000Z,1000.42
2017-11-16T03:01:44.000Z,1000.36
2017-11-16T03:02:44.000Z,1000.40
2017-11-16T03:03:44.000Z,1000.39
2017-11-16T03:04:44.000Z,1000.36
2017-11-16T03:05:43.000Z,1000.42
2017-11-16T03:06:44.000Z,1000.42
2017-11-16T03:07:43.000Z,1000.43
2017-11-16T03:08:43.000Z,1000.37
2017-11-16T03:09:43.000Z,1000.49
2017-11-16T03:10:43.000Z,1000.43
2017-11-16T03:11:44.000Z,1000.47
2017-11-16T03:12:44.000Z,1000.37
2017-11-16T03:13:44.000Z,1000.50
2017-11-16T03:14:44.000Z,1000.46
2017-11-16T03:15:44.000Z,1000.45
2017-11-16T03:16:44.000Z,1000.49
2017-11-16T03:17:44.000Z,1000.48
2017-11-16T03:18:44.000Z,1000.42
2017-11-16T03:19:44.000Z,1000.49
2017-11-16T03:20:44.000Z,1000.50
2017-11-16T03:21:44.000Z,1000.50
2017-11-16T03:22:43.000Z,1000.53
2017-11-16T03:23:44.000Z,1000.40
2017-11-16T03:24:43.000Z,1000.50
2017-11-16T03:25:45.000Z,1000.52
2017-11-16T03:26:45.000Z,1000.49
2017-11-16T03:27:47.000Z,1000.53
2017-11-16T03:28:43.000Z,1000.52
2017-11-16T03:29:44.000Z,1000.48
2017-11-16T03:30:44.000Z,1000.45
2017-11-16T03:31:44.000Z,1000.42
2017-11-16T03:32:44.000Z,1000.54
2017-11-16T03:33:44.000Z,1000.56
2017-11-16T03:34:44.000Z,1000.49
2017-11-16T03:35:44.000Z,1000.50
2017-11-16T03:36:44.000Z,1000.50
2017-11-16T03:37:44.000Z,1000.46
2017-11-16T03:38:44.000Z,1000.51
2017-11-16T03:39:43.000Z,1000.47
2017-11-16T03:40:43.000Z,1000.49
2017-11-16T03:41:43.000Z,1000.51
2017-11-16T03:42:43.000Z,1000.50
2017-11-16T03:43:43.000Z,1000.46
2017-11-16T03:44:43.000Z,1000.47
2017-11-16T03:45:44.000Z,1000.50
2017-11-16T03:46:44.000Z,1000.44
2017-11-16T03:47:44.000Z,1000.44
2017-11-16T03:48:44.000Z,1000.44
2017-11-16T03:49:44.000Z,1000.43
2017-11-16T03:50:44.000Z,1000.45
2017-11-16T03:51:44.000Z,1000.49
2017-11-16T03:52:44.000Z,1000.46
2017-11-16T03:53:44.000Z,1000.45
2017-11-16T03:54:44.000Z,1000.44
2017-11-16T03:55:44.000Z,1000.41
2017-11-16T03:56:44.000Z,1000.47
2017-11-16T03:57:43.000Z,1000.55
2017-11-16T03:58:43.000Z,1000.48
2017-11-16T03:59:43.000Z,1000.45
2017-11-16T04:00:43.000Z,1000.45
2017-11-16T04:01:43.000Z,1000.42
2017-11-16T04:02:43.000Z,1000.48
2017-11-16T04:03:44.000Z,1000.46
2017-11-16T04:04:44.000Z,1000.40
2017-11-16T04:05:44.000Z,1000.41
2017-11-16T04:06:44.000Z,1000.44
2017-11-16T04:07:44.000Z,1000.36
2017-11-16T04:08:44.000Z,1000.40
2017-11-16T04:09:44.000Z,1000.38
2017-11-16T04:10:44.000Z,1000.42
2017-11-16T04:11:44.000Z,1000.50
2017-11-16T04:12:44.000Z,1000.37
2017-11-16T04:13:44.000Z,1000.44
2017-11-16T04:14:44.000Z,1000.46
2017-11-16T04:15:43.000Z,1000.50
2017-11-16T04:16:43.000Z,1000.50
2017-11-16T04:17:43.000Z,1000.47
2017-11-16T04:18:43.000Z,1000.43
2017-11-16T04:19:43.000Z,1000.45
2017-11-16T04:20:43.000Z,1000.44
2017-11-16T04:21:43.000Z,1000.46
2017-11-16T04:22:44.000Z,1000.42
2017-11-16T04:23:44.000Z,1000.43
2017-11-16T04:24:44.000Z,1000.45
2017-11-16T04:25:44.000Z,1000.42
2017-11-16T04:26:44.000Z,1000.40
2017-11-16T04:27:44.000Z,1000.40
2017-11-16T04:28:44.000Z,1000.46
2017-11-16T04:29:44.000Z,1000.47
2017-11-16T04:30:32.000Z,1000.47
2017-11-16T04:32:19.000Z,1000.46
2017-11-16T04:32:20.000Z,1000.46
2017-11-16T04:32:43.000Z,1000.45
2017-11-16T04:33:44.000Z,1000.45
2017-11-16T04:34:44.000Z,1000.47
2017-11-16T04:35:44.000Z,1000.49
2017-11-16T04:36:44.000Z,1000.41
2017-11-16T04:37:44.000Z,1000.45
2017-11-16T04:38:44.000Z,1000.38
2017-11-16T04:39:44.000Z,1000.33
2017-11-16T04:40:44.000Z,1000.32
2017-11-16T04:41:44.000Z,1000.35
2017-11-16T04:42:44.000Z,1000.29
2017-11-16T04:43:44.000Z,1000.27
2017-11-16T04:44:44.000Z,1000.27
2017-11-16T04:45:44.000Z,1000.33
2017-11-16T04:46:44.000Z,1000.25
2017-11-16T04:47:44.000Z,1000.24
2017-11-16T04:48:44.000Z,1000.27
2017-11-16T04:49:43.000Z,1000.27
2017-11-16T04:50:43.000Z,1000.24
2017-11-16T04:51:44.000Z,1000.22
2017-11-16T04:52:43.000Z,1000.21
2017-11-16T04:53:43.000Z,1000.18
2017-11-16T04:54:43.000Z,1000.17
2017-11-16T04:55:43.000Z,1000.22
2017-11-16T04:56:44.000Z,1000.24
2017-11-16T04:57:44.000Z,1000.17
2017-11-16T04:58:44.000Z,1000.16
2017-11-16T04:59:44.000Z,1000.24
2017-11-16T05:00:44.000Z,1000.25
2017-11-16T05:01:44.000Z,1000.12
2017-11-16T05:02:44.000Z,1000.21
2017-11-16T05:03:44.000Z,1000.17
2017-11-16T05:04:44.000Z,1000.21
2017-11-16T05:05:44.000Z,1000.21
2017-11-16T05:06:44.000Z,1000.22
2017-11-16T05:07:43.000Z,1000.23
2017-11-16T05:08:43.000Z,1000.26
2017-11-16T05:09:43.000Z,1000.30
2017-11-16T05:10:43.000Z,1000.26
2017-11-16T05:11:43.000Z,1000.27
2017-11-16T05:12:43.000Z,1000.19
2017-11-16T05:13:43.000Z,1000.24
2017-11-16T05:14:44.000Z,1000.20
2017-11-16T05:15:44.000Z,1000.19
2017-11-16T05:16:44.000Z,1000.06
2017-11-16T05:17:44.000Z,1000.13
2017-11-16T05:18:44.000Z,1000.12
2017-11-16T05:19:44.000Z,1000.10
2017-11-16T05:20:44.000Z,1000.06
2017-11-16T05:21:44.000Z,1000.08
2017-11-16T05:22:44.000Z,1000.01
2017-11-16T05:23:44.000Z,1000.05
2017-11-16T05:24:43.000Z,1000.07
2017-11-16T05:25:43.000Z,1000.03
2017-11-16T05:26:43.000Z,1000.08
2017-11-16T05:27:43.000Z,1000.08
2017-11-16T05:28:43.000Z,1000.16
2017-11-16T05:29:43.000Z,1000.09
2017-11-16T05:30:43.000Z,1000.10
2017-11-16T05:31:44.000Z,1000.11
2017-11-16T05:32:44.000Z,1000.09
2017-11-16T05:33:44.000Z,1000.10
2017-11-16T05:34:44.000Z,1000.06
2017-11-16T05:35:44.000Z,1000.08
2017-11-16T05:36:44.000Z,1000.08
2017-11-16T05:37:44.000Z,1000.15
2017-11-16T05:38:44.000Z,1000.20
2017-11-16T05:39:44.000Z,1000.05
2017-11-16T05:40:44.000Z,1000.13
2017-11-16T05:41:43.000Z,1000.12
2017-11-16T05:42:43.000Z,1000.11
2017-11-16T05:43:43.000Z,1000.12
2017-11-16T05:44:43.000Z,1000.14
2017-11-16T05:45:43.000Z,1000.15
2017-11-16T05:46:43.000Z,1000.14
2017-11-16T05:47:43.000Z,1000.00
2017-11-16T05:48:44.000Z,1000.11
2017-11-16T05:49:44.000Z,1000.08
2017-11-16T05:50:44.000Z,1000.03
2017-11-16T05:51:44.000Z,1000.01
2017-11-16T05:52:44.000Z,1000.11
2017-11-16T05:53:44.000Z,1000.06
2017-11-16T05:54:44.000Z,1000.03
2017-11-16T05:55:44.000Z,1000.06
2017-11-16T05:56:44.000Z,1000.00
2017-11-16T05:57:44.000Z,1000.05
2017-11-16T05:58:43.000Z,1000.05
2017-11-16T05:59:43.000Z,1000.08
2017-11-16T06:00:43.000Z,1000.08
2017-11-16T06:01:43.000Z,1000.08
2017-11-16T06:02:48.000Z,1000.10
2017-11-16T06:03:43.000Z,1000.01
2017-11-16T06:04:46.000Z,1000.08
2017-11-16T06:05:45.000Z,1000.06
2017-11-16T06:06:43.000Z,1000.03
2017-11-16T06:07:46.000Z,1000.03
2017-11-16T06:08:44.000Z,1000.08
2017-11-16T06:09:44.000Z,1000.07
2017-11-16T06:10:46.000Z,1000.07
2017-11-16T06:11:43.000Z,1000.12
2017-11-16T06:12:43.000Z,1000.07
2017-11-16T06:13:44.000Z,1000.11
2017-11-16T06:14:46.000Z,1000.12
2017-11-16T06:15:49.000Z,1000.09
2017-11-16T06:16:43.000Z,1000.18
2017-11-16T06:17:44.000Z,1000.16
2017-11-16T06:18:44.000Z,1000.19
2017-11-16T06:19:44.000Z,1000.19
2017-11-16T06:20:44.000Z,1000.11
2017-11-16T06:21:44.000Z,1000.23
2017-11-16T06:22:46.000Z,1000.24
2017-11-16T06:23:44.000Z,1000.19
2017-11-16T06:24:46.000Z,1000.17
2017-11-16T06:25:44.000Z,1000.17
2017-11-16T06:26:44.000Z,1000.24
2017-11-16T06:27:44.000Z,1000.16
2017-11-16T06:28:44.000Z,1000.20
2017-11-16T06:29:44.000Z,1000.20
2017-11-16T06:30:47.000Z,1000.19
2017-11-16T06:31:43.000Z,1000.23
2017-11-16T06:32:45.000Z,1000.27
2017-11-16T06:33:43.000Z,1000.22
2017-11-16T06:34:43.000Z,1000.21
2017-11-16T06:35:43.000Z,1000.23
2017-11-16T06:36:43.000Z,1000.18
2017-11-16T06:37:43.000Z,1000.22
2017-11-16T06:38:43.000Z,1000.14
2017-11-16T06:39:44.000Z,1000.19
2017-11-16T06:40:44.000Z,1000.14
2017-11-16T06:41:44.000Z,1000.22
2017-11-16T06:42:45.000Z,1000.26
2017-11-16T06:43:44.000Z,1000.22
2017-11-16T06:44:44.000Z,1000.18
2017-11-16T06:45:44.000Z,1000.22
2017-11-16T06:46:44.000Z,1000.19
2017-11-16T06:47:44.000Z,1000.23
2017-11-16T06:48:44.000Z,1000.18
2017-11-16T06:49:43.000Z,1000.22
2017-11-16T06:50:43.000Z,1000.20
2017-11-16T06:51:43.000Z,1000.12
2017-11-16T06:52:45.000Z,1000.22
2017-11-16T06:53:43.000Z,1000.14
2017-11-16T06:54:43.000Z,1000.22
2017-11-16T06:55:44.000Z,1000.08
2017-11-16T06:56:44.000Z,1000.15
2017-11-16T06:57:44.000Z,1000.09
2017-11-16T06:58:44.000Z,1000.10
2017-11-16T06:59:44.000Z,1000.11
2017-11-16T07:00:44.000Z,1000.12
2017-11-16T07:01:44.000Z,1000.15
2017-11-16T07:02:44.000Z,1000.14
2017-11-16T07:03:44.000Z,1000.10
2017-11-16T07:04:44.000Z,1000.15
2017-11-16T07:05:44.000Z,1000.13
2017-11-16T07:06:43.000Z,1000.16
2017-11-16T07:07:43.000Z,1000.20
2017-11-16T07:08:43.000Z,1000.15
2017-11-16T07:09:43.000Z,1000.10
2017-11-16T07:10:43.000Z,1000.12
2017-11-16T07:11:43.000Z,1000.16
2017-11-16T07:12:44.000Z,1000.08
2017-11-16T07:13:44.000Z,1000.08
2017-11-16T07:14:44.000Z,1000.08
2017-11-16T07:15:44.000Z,1000.07
2017-11-16T07:16:44.000Z,1000.06
2017-11-16T07:17:44.000Z,1000.04
2017-11-16T07:18:44.000Z,1000.11
2017-11-16T07:19:44.000Z,1000.11
2017-11-16T07:20:44.000Z,1000.14
2017-11-16T07:21:43.000Z,1000.09
2017-11-16T19:17:35.000Z,998.23
2017-11-16T19:17:45.000Z,998.30
2017-11-16T19:18:46.000Z,998.22
2017-11-16T19:19:46.000Z,998.23
2017-11-16T19:20:47.000Z,998.32
2017-11-16T19:21:47.000Z,998.20
2017-11-16T19:22:48.000Z,998.24
2017-11-16T19:23:45.000Z,998.18
2017-11-16T19:24:48.000Z,998.15
